createdAt,value
2018-11-07T00:00:34.200Z,77.88
2018-11-07T00:03:02.847Z,78.13
2018-11-07T00:05:30.924Z,78.11
2018-11-07T00:07:59.085Z,78.60
2018-11-07T00:10:27.100Z,78.21
2018-11-07T00:12:55.172Z,78.20
2018-11-07T00:15:23.257Z,78.29
2018-11-07T00:17:51.377Z,78.55
2018-11-07T00:20:19.460Z,78.42
2018-11-07T00:22:47.952Z,78.49
2018-11-07T00:25:16.023Z,78.41
2018-11-07T00:27:44.152Z,78.54
2018-11-07T00:30:12.576Z,78.32
2018-11-07T00:32:40.908Z,78.39
2018-11-07T00:35:10.342Z,78.33
2018-11-07T00:37:38.252Z,77.93
2018-11-07T00:40:06.339Z,77.30
2018-11-07T00:42:34.440Z,77.57
2018-11-07T00:45:02.505Z,78.52
2018-11-07T00:47:30.585Z,78.19
2018-11-07T00:49:58.643Z,77.94
2018-11-07T00:52:26.725Z,78.36
2018-11-07T00:54:54.839Z,79.00
2018-11-07T00:57:22.920Z,79.07
2018-11-07T00:59:51.252Z,79.21
2018-11-07T01:02:19.359Z,79.49
2018-11-07T01:04:47.904Z,78.68
2018-11-07T01:07:16.440Z,79.04
2018-11-07T01:09:44.537Z,78.82
2018-11-07T01:12:12.613Z,79.52
2018-11-07T01:14:40.685Z,79.10
2018-11-07T01:17:09.352Z,79.43
2018-11-07T01:19:37.437Z,78.91
2018-11-07T01:22:06.405Z,79.48
2018-11-07T01:24:34.492Z,79.61
2018-11-07T01:27:02.585Z,78.94
2018-11-07T01:29:31.009Z,79.73
2018-11-07T01:31:59.112Z,79.60
2018-11-07T01:34:27.216Z,80.21
2018-11-07T01:36:55.280Z,79.67
2018-11-07T01:39:23.356Z,79.66
2018-11-07T01:41:51.716Z,80.10
2018-11-07T01:44:20.076Z,80.28
2018-11-07T01:46:48.505Z,80.64
2018-11-07T01:49:16.631Z,80.28
2018-11-07T01:51:44.700Z,80.30
2018-11-07T01:54:12.823Z,80.81
2018-11-07T01:56:41.648Z,81.03
2018-11-07T01:59:09.774Z,80.79
2018-11-07T02:01:38.951Z,80.64
2018-11-07T02:04:07.389Z,80.75
2018-11-07T02:06:35.460Z,80.44
2018-11-07T02:09:03.797Z,80.38
2018-11-07T02:11:31.947Z,80.49
2018-11-07T02:14:00.260Z,81.20
2018-11-07T02:16:28.397Z,80.95
2018-11-07T02:18:56.704Z,80.85
2018-11-07T02:21:24.801Z,80.99
2018-11-07T02:23:52.915Z,80.27
2018-11-07T02:26:20.995Z,81.03
2018-11-07T02:28:49.073Z,80.93
2018-11-07T02:31:17.450Z,80.72
2018-11-07T02:33:45.581Z,80.64
2018-11-07T02:36:13.868Z,80.70
2018-11-07T02:38:42.700Z,80.94
2018-11-07T02:41:11.616Z,81.30
2018-11-07T02:43:40.101Z,80.71
2018-11-07T02:46:08.668Z,81.04
2018-11-07T02:48:37.315Z,81.03
2018-11-07T02:51:05.636Z,80.85
2018-11-07T02:53:34.321Z,80.93
2018-11-07T02:56:02.731Z,81.18
2018-11-07T02:58:30.826Z,81.34
2018-11-07T03:00:59.013Z,80.73
2018-11-07T03:03:27.156Z,80.57
2018-11-07T03:05:56.321Z,81.03
2018-11-07T03:08:24.744Z,80.60
2018-11-07T03:10:52.830Z,80.91
2018-11-07T03:13:20.957Z,80.34
2018-11-07T03:15:49.408Z,81.01
2018-11-07T03:18:17.472Z,80.71
2018-11-07T03:20:45.528Z,80.69
2018-11-07T03:23:13.592Z,80.84
2018-11-07T03:25:41.677Z,80.30
2018-11-07T03:28:09.732Z,80.32
2018-11-07T03:30:37.846Z,80.97
2018-11-07T03:33:05.913Z,80.37
2018-11-07T03:35:33.979Z,80.66
2018-11-07T03:43:24.125Z,80.48
2018-11-07T03:45:59.359Z,80.92
2018-11-07T03:48:29.200Z,80.58
2018-11-07T03:50:57.340Z,80.12
2018-11-07T03:53:26.032Z,80.45
2018-11-07T03:55:54.130Z,80.81
2018-11-07T03:58:22.479Z,80.68
2018-11-07T04:00:50.584Z,80.79
2018-11-07T04:03:19.532Z,80.74
2018-11-07T04:05:48.009Z,81.46
2018-11-07T04:08:16.334Z,80.74
2018-11-07T04:10:44.411Z,80.72
2018-11-07T04:13:12.476Z,81.05
2018-11-07T04:15:40.627Z,81.11
2018-11-07T04:18:09.083Z,81.30
2018-11-07T04:20:37.145Z,81.37
2018-11-07T04:23:05.456Z,81.17
2018-11-07T04:25:33.533Z,81.64
2018-11-07T04:28:01.681Z,81.48
2018-11-07T04:30:29.739Z,81.13
2018-11-07T04:32:57.808Z,81.53
2018-11-07T04:35:26.307Z,81.35
2018-11-07T04:37:54.893Z,81.50
2018-11-07T04:40:22.967Z,81.79
2018-11-07T04:42:51.425Z,81.52
2018-11-07T04:45:20.489Z,81.90
2018-11-07T04:48:01.864Z,82.27
2018-11-07T04:53:19.990Z,81.73
2018-11-07T04:58:35.497Z,81.86
2018-11-07T05:01:17.859Z,82.05
2018-11-07T05:03:54.935Z,82.32
2018-11-07T05:14:32.387Z,82.13
2018-11-07T05:17:00.478Z,82.56
2018-11-07T05:19:28.581Z,82.08
2018-11-07T05:21:56.640Z,82.35
2018-11-07T05:24:24.705Z,81.78
2018-11-07T05:26:53.204Z,82.08
2018-11-07T05:29:21.278Z,82.45
2018-11-07T05:31:49.934Z,81.90
2018-11-07T05:34:18.001Z,82.42
2018-11-07T05:36:46.443Z,81.45
2018-11-07T05:39:14.876Z,81.74
2018-11-07T05:41:42.987Z,81.68
2018-11-07T05:44:11.062Z,81.38
2018-11-07T05:46:39.132Z,81.92
2018-11-07T05:49:07.419Z,81.75
2018-11-07T05:51:35.505Z,81.79
2018-11-07T05:54:03.588Z,81.94
2018-11-07T05:56:32.143Z,81.40
2018-11-07T06:01:37.244Z,82.28
2018-11-07T06:04:05.600Z,82.48
2018-11-07T06:06:33.660Z,81.91
2018-11-07T06:09:01.757Z,81.92
2018-11-07T06:11:29.854Z,82.14
2018-11-07T06:13:57.928Z,82.07
2018-11-07T06:16:25.995Z,81.96
2018-11-07T06:18:54.092Z,81.48
2018-11-07T06:21:22.160Z,81.65
2018-11-07T06:23:50.253Z,81.87
2018-11-07T06:26:18.340Z,82.44
2018-11-07T06:28:46.428Z,82.47
2018-11-07T06:31:14.501Z,81.96
2018-11-07T06:33:42.589Z,81.77
2018-11-07T06:36:10.659Z,82.10
2018-11-07T06:38:38.724Z,82.17
2018-11-07T06:41:06.808Z,81.98
2018-11-07T06:43:34.868Z,81.92
2018-11-07T06:46:02.941Z,81.81
2018-11-07T06:48:32.289Z,81.58
2018-11-07T06:51:00.411Z,81.58
2018-11-07T06:53:28.504Z,81.11
2018-11-07T06:55:56.589Z,81.71
2018-11-07T06:58:24.664Z,81.23
2018-11-07T07:00:52.740Z,81.32
2018-11-07T07:03:20.813Z,81.30
2018-11-07T07:05:48.896Z,81.53
2018-11-07T07:08:17.037Z,81.29
2018-11-07T07:10:45.122Z,81.61
2018-11-07T07:13:13.225Z,81.55
2018-11-07T07:15:41.701Z,81.06
2018-11-07T07:18:09.788Z,84.87
2018-11-07T07:20:37.820Z,86.34
2018-11-07T07:23:05.962Z,87.43
2018-11-07T07:25:34.052Z,87.44
2018-11-07T07:28:02.120Z,87.91
2018-11-07T07:30:30.233Z,85.53
2018-11-07T07:32:58.369Z,82.11
2018-11-07T07:35:26.385Z,81.47
2018-11-07T07:37:54.461Z,80.71
2018-11-07T07:40:22.537Z,81.10
2018-11-07T07:42:50.624Z,84.60
2018-11-07T07:45:19.721Z,84.09
2018-11-07T07:47:47.875Z,82.39
2018-11-07T07:50:17.187Z,82.19
2018-11-07T07:52:45.625Z,81.67
2018-11-07T07:55:13.941Z,80.00
2018-11-07T07:57:42.632Z,79.31
2018-11-07T08:00:15.525Z,80.74
2018-11-07T08:02:46.974Z,79.70
2018-11-07T08:05:15.036Z,78.31
2018-11-07T08:07:43.512Z,77.52
2018-11-07T08:10:15.828Z,78.38
2018-11-07T08:12:44.265Z,78.58
2018-11-07T08:15:12.632Z,77.37
2018-11-07T08:17:41.632Z,76.71
2018-11-07T08:20:10.655Z,75.87
2018-11-07T08:22:38.716Z,76.34
2018-11-07T08:25:06.793Z,75.62
2018-11-07T08:27:34.916Z,74.47
2018-11-07T08:30:02.977Z,74.84
2018-11-07T08:32:31.045Z,74.47
2018-11-07T08:34:59.133Z,73.75
2018-11-07T08:37:27.202Z,74.35
2018-11-07T08:39:55.276Z,74.68
2018-11-07T08:42:23.465Z,73.30
2018-11-07T08:44:51.477Z,73.69
2018-11-07T08:47:19.568Z,73.24
2018-11-07T08:49:47.641Z,72.62
2018-11-07T08:52:15.712Z,71.88
2018-11-07T08:54:43.843Z,72.35
2018-11-07T08:57:11.848Z,71.41
2018-11-07T08:59:39.956Z,71.24
2018-11-07T09:02:08.092Z,71.41
2018-11-07T09:04:36.145Z,70.06
2018-11-07T09:07:04.472Z,70.34
2018-11-07T09:09:32.552Z,70.54
2018-11-07T09:12:00.662Z,69.76
2018-11-07T09:14:28.700Z,69.29
2018-11-07T09:16:56.788Z,68.73
2018-11-07T09:19:24.871Z,68.97
2018-11-07T09:21:52.940Z,68.87
2018-11-07T09:24:21.180Z,68.37
2018-11-07T09:26:49.205Z,67.68
2018-11-07T09:29:17.372Z,67.20
2018-11-07T09:31:45.352Z,66.24
2018-11-07T09:34:13.432Z,66.36
2018-11-07T09:36:41.488Z,65.91
2018-11-07T09:39:10.401Z,65.36
2018-11-07T09:41:38.509Z,64.87
2018-11-07T09:44:06.920Z,63.98
2018-11-07T09:46:35.319Z,63.87
2018-11-07T09:49:03.384Z,63.24
2018-11-07T09:51:31.662Z,63.07
2018-11-07T09:54:00.476Z,62.87
2018-11-07T09:56:28.440Z,61.99
2018-11-07T09:58:56.523Z,62.15
2018-11-07T10:01:24.608Z,60.37
2018-11-07T10:03:52.664Z,61.08
2018-11-07T10:06:20.740Z,60.96
2018-11-07T10:08:48.823Z,60.79
2018-11-07T10:11:16.917Z,61.26
2018-11-07T10:13:45.084Z,60.94
2018-11-07T10:16:13.160Z,60.51
2018-11-07T10:18:41.216Z,60.33
2018-11-07T10:21:09.294Z,59.99
2018-11-07T10:23:37.595Z,59.99
2018-11-07T10:26:05.678Z,60.22
2018-11-07T10:28:33.865Z,59.69
2018-11-07T10:31:01.830Z,59.70
2018-11-07T10:33:29.876Z,59.47
2018-11-07T10:35:57.965Z,59.04
2018-11-07T10:38:26.032Z,59.06
2018-11-07T10:40:54.100Z,59.15
2018-11-07T10:43:22.150Z,58.55
2018-11-07T10:45:50.242Z,58.19
2018-11-07T10:48:18.351Z,58.11
2018-11-07T10:50:46.400Z,57.98
2018-11-07T10:53:14.489Z,57.64
2018-11-07T10:55:42.642Z,57.48
2018-11-07T10:58:10.633Z,57.51
2018-11-07T11:00:44.101Z,56.45
2018-11-07T11:03:17.421Z,56.87
2018-11-07T11:05:45.531Z,56.97
2018-11-07T11:08:13.597Z,55.32
2018-11-07T11:10:41.692Z,56.48
2018-11-07T11:13:09.792Z,55.98
2018-11-07T11:15:37.877Z,55.76
2018-11-07T11:18:05.969Z,55.28
2018-11-07T11:20:34.031Z,54.29
2018-11-07T11:23:02.116Z,55.38
2018-11-07T11:25:30.188Z,55.04
2018-11-07T11:27:58.256Z,54.78
2018-11-07T11:30:26.320Z,55.07
2018-11-07T11:32:54.397Z,54.35
2018-11-07T11:35:22.593Z,53.99
2018-11-07T11:37:50.541Z,53.92
2018-11-07T11:40:18.604Z,54.02
2018-11-07T11:42:46.689Z,53.73
2018-11-07T11:45:15.877Z,54.36
2018-11-07T11:47:44.267Z,54.08
2018-11-07T11:50:15.030Z,53.57
2018-11-07T11:52:44.026Z,53.36
2018-11-07T11:55:12.252Z,53.42
2018-11-07T11:57:41.151Z,53.31
2018-11-07T12:00:11.417Z,53.25
2018-11-07T12:02:39.163Z,52.83
2018-11-07T12:05:08.937Z,52.67
2018-11-07T12:07:37.042Z,52.54
2018-11-07T12:10:06.865Z,52.02
2018-11-07T12:12:34.924Z,52.73
2018-11-07T12:15:03.036Z,52.11
2018-11-07T12:17:31.115Z,52.17
2018-11-07T12:19:59.157Z,51.51
2018-11-07T12:22:27.225Z,51.01
2018-11-07T12:24:55.301Z,51.53
2018-11-07T12:27:23.372Z,50.43
2018-11-07T12:29:51.461Z,51.36
2018-11-07T12:32:19.529Z,50.10
2018-11-07T12:34:47.601Z,50.73
2018-11-07T12:37:15.660Z,50.90
2018-11-07T12:39:43.744Z,51.68
2018-11-07T12:42:11.788Z,51.26
2018-11-07T12:44:39.873Z,51.88
2018-11-07T12:47:07.940Z,51.65
2018-11-07T12:49:36.069Z,52.60
2018-11-07T12:52:04.133Z,52.14
2018-11-07T12:54:32.220Z,52.61
2018-11-07T12:57:00.343Z,53.15
2018-11-07T12:59:28.395Z,54.58
2018-11-07T13:01:56.781Z,54.40
2018-11-07T13:04:25.010Z,54.85
2018-11-07T13:06:53.123Z,55.28
2018-11-07T13:09:21.207Z,56.07
2018-11-07T13:11:49.290Z,55.68
2018-11-07T13:14:17.353Z,56.37
2018-11-07T13:16:45.554Z,57.04
2018-11-07T13:19:13.536Z,56.71
2018-11-07T13:21:41.588Z,57.13
2018-11-07T13:24:09.667Z,57.58
2018-11-07T13:26:37.798Z,57.68
2018-11-07T13:29:05.909Z,57.48
2018-11-07T13:31:33.971Z,57.79
2018-11-07T13:34:02.036Z,58.43
2018-11-07T13:36:30.116Z,58.49
2018-11-07T13:38:58.603Z,58.30
2018-11-07T13:41:26.248Z,58.45
2018-11-07T13:43:54.300Z,58.50
2018-11-07T13:46:22.376Z,58.74
2018-11-07T13:48:50.416Z,58.66
2018-11-07T13:51:18.487Z,57.81
2018-11-07T13:53:46.542Z,58.08
2018-11-07T13:56:14.605Z,57.61
2018-11-07T13:58:42.661Z,57.79
2018-11-07T14:01:10.752Z,57.47
2018-11-07T14:03:38.833Z,56.80
2018-11-07T14:06:06.923Z,56.89
2018-11-07T14:08:34.979Z,56.94
2018-11-07T14:11:03.059Z,55.92
2018-11-07T14:13:31.149Z,55.74
2018-11-07T14:15:59.266Z,55.81
2018-11-07T14:18:27.260Z,55.62
2018-11-07T14:20:55.307Z,55.42
2018-11-07T14:23:23.436Z,55.14
2018-11-07T14:25:51.496Z,54.45
2018-11-07T14:28:19.744Z,54.75
2018-11-07T14:30:47.656Z,54.33
2018-11-07T14:33:15.784Z,54.26
2018-11-07T14:35:43.848Z,53.80
2018-11-07T14:38:11.935Z,53.54
2018-11-07T14:40:39.995Z,53.70
2018-11-07T14:43:08.061Z,53.83
2018-11-07T14:45:36.172Z,53.27
2018-11-07T14:48:04.270Z,52.73
2018-11-07T14:50:32.356Z,52.60
2018-11-07T14:53:00.420Z,52.85
2018-11-07T14:55:28.476Z,52.85
2018-11-07T14:57:56.539Z,53.25
2018-11-07T15:00:24.626Z,52.96
2018-11-07T15:02:52.701Z,53.24
2018-11-07T15:05:20.847Z,53.15
2018-11-07T15:07:48.845Z,53.23
2018-11-07T15:10:17.575Z,53.67
2018-11-07T15:12:45.641Z,53.63
2018-11-07T15:15:15.049Z,53.87
2018-11-07T15:17:43.111Z,54.27
2018-11-07T15:20:12.320Z,54.05
2018-11-07T15:22:40.377Z,54.54
2018-11-07T15:25:09.573Z,54.67
2018-11-07T15:27:37.545Z,54.62
2018-11-07T15:30:07.365Z,55.57
2018-11-07T15:32:35.428Z,55.42
2018-11-07T15:35:03.493Z,55.82
2018-11-07T15:37:31.586Z,56.15
2018-11-07T15:39:59.654Z,56.04
2018-11-07T15:42:27.780Z,56.52
2018-11-07T15:44:55.868Z,57.35
2018-11-07T15:47:23.936Z,57.25
2018-11-07T15:49:57.483Z,57.51
2018-11-07T15:52:25.581Z,57.77
2018-11-07T15:54:53.645Z,58.02
2018-11-07T15:57:21.703Z,57.92
2018-11-07T15:59:49.770Z,58.44
2018-11-07T16:02:17.821Z,58.48
2018-11-07T16:04:45.880Z,58.86
2018-11-07T16:07:13.945Z,59.19
2018-11-07T16:09:41.993Z,59.11
2018-11-07T16:12:10.056Z,59.23
2018-11-07T16:14:38.161Z,59.86
2018-11-07T16:17:06.241Z,59.96
2018-11-07T16:19:34.296Z,59.86
2018-11-07T16:22:02.368Z,60.40
2018-11-07T16:24:30.438Z,60.32
2018-11-07T16:26:58.509Z,60.77
2018-11-07T16:29:26.607Z,60.90
2018-11-07T16:31:54.648Z,60.79
2018-11-07T16:34:22.693Z,60.73
2018-11-07T16:36:50.828Z,60.91
2018-11-07T16:39:18.841Z,60.92
2018-11-07T16:41:47.013Z,61.42
2018-11-07T16:44:14.990Z,61.59
2018-11-07T16:46:43.054Z,61.40
2018-11-07T16:49:11.204Z,61.67
2018-11-07T16:51:39.299Z,61.75
2018-11-07T16:54:08.370Z,61.66
2018-11-07T16:56:36.449Z,61.86
2018-11-07T16:59:04.546Z,61.95
2018-11-07T17:01:32.616Z,62.13
2018-11-07T17:04:00.717Z,62.50
2018-11-07T17:06:28.789Z,62.70
2018-11-07T17:08:56.853Z,62.74
2018-11-07T17:11:24.926Z,62.79
2018-11-07T17:13:53.008Z,62.84
2018-11-07T17:16:21.070Z,62.94
2018-11-07T17:18:49.148Z,63.51
2018-11-07T17:21:17.219Z,63.59
2018-11-07T17:23:45.327Z,63.57
2018-11-07T17:26:13.384Z,72.67
2018-11-07T17:28:41.489Z,73.09
2018-11-07T17:31:09.572Z,69.57
2018-11-07T17:33:37.632Z,67.09
2018-11-07T17:36:05.985Z,65.69
2018-11-07T17:38:34.093Z,65.17
2018-11-07T17:41:02.148Z,64.65
2018-11-07T17:43:30.341Z,63.18
2018-11-07T17:45:58.713Z,63.31
2018-11-07T17:48:26.824Z,63.09
2018-11-07T17:50:54.857Z,63.12
2018-11-07T17:53:22.937Z,62.29
2018-11-07T17:55:51.020Z,61.08
2018-11-07T17:58:19.130Z,61.33
2018-11-07T18:00:47.201Z,60.61
2018-11-07T18:03:15.296Z,60.33
2018-11-07T18:05:43.413Z,58.79
2018-11-07T18:08:11.540Z,59.50
2018-11-07T18:10:39.660Z,58.97
2018-11-07T18:13:07.756Z,59.10
2018-11-07T18:15:35.834Z,58.19
2018-11-07T18:18:03.916Z,58.72
2018-11-07T18:20:32.045Z,58.47
2018-11-07T18:23:00.169Z,57.95
2018-11-07T18:25:28.281Z,57.44
2018-11-07T18:27:56.371Z,57.76
2018-11-07T18:30:25.040Z,56.42
2018-11-07T18:32:53.657Z,56.33
2018-11-07T18:35:21.816Z,56.63
2018-11-07T18:37:49.816Z,56.16
2018-11-07T18:40:19.206Z,55.78
2018-11-07T18:42:47.292Z,56.85
2018-11-07T18:45:15.664Z,57.93
2018-11-07T18:47:45.006Z,58.18
2018-11-07T18:50:14.426Z,59.64
2018-11-07T18:52:42.922Z,58.69
2018-11-07T18:55:12.237Z,59.72
2018-11-07T18:57:40.760Z,59.77
2018-11-07T19:00:10.683Z,59.13
2018-11-07T19:02:38.902Z,58.22
2018-11-07T19:05:07.538Z,58.66
2018-11-07T19:07:42.810Z,59.69
2018-11-07T19:10:13.652Z,59.11
2018-11-07T19:12:41.881Z,58.89
2018-11-07T19:15:11.527Z,58.78
2018-11-07T19:17:40.431Z,58.17
2018-11-07T19:20:09.445Z,58.45
2018-11-07T19:22:37.818Z,58.25
2018-11-07T19:25:07.772Z,57.95
2018-11-07T19:27:36.176Z,57.58
2018-11-07T19:30:04.744Z,57.04
2018-11-07T19:32:32.825Z,57.14
2018-11-07T19:35:00.965Z,56.62
2018-11-07T19:37:29.059Z,57.53
2018-11-07T19:39:57.143Z,56.94
2018-11-07T19:42:25.185Z,56.86
2018-11-07T19:44:53.252Z,56.55
2018-11-07T19:47:21.329Z,55.94
2018-11-07T19:49:49.486Z,55.78
2018-11-07T19:52:17.580Z,55.53
2018-11-07T19:54:45.653Z,54.87
2018-11-07T19:57:13.742Z,54.90
2018-11-07T19:59:41.849Z,55.79
2018-11-07T20:02:09.933Z,55.31
2018-11-07T20:04:37.989Z,54.18
2018-11-07T20:07:06.122Z,53.77
2018-11-07T20:09:34.176Z,53.81
2018-11-07T20:12:02.271Z,54.57
2018-11-07T20:14:30.342Z,55.55
2018-11-07T20:16:58.441Z,56.53
2018-11-07T20:19:26.492Z,56.60
2018-11-07T20:21:54.570Z,57.38
2018-11-07T20:24:22.644Z,58.24
2018-11-07T20:26:50.717Z,59.07
2018-11-07T20:29:18.785Z,59.46
2018-11-07T20:31:47.159Z,60.33
2018-11-07T20:34:15.208Z,61.45
2018-11-07T20:36:43.264Z,61.77
2018-11-07T20:39:12.472Z,62.92
2018-11-07T20:41:40.668Z,63.91
2018-11-07T20:44:09.741Z,64.35
2018-11-07T20:46:38.099Z,64.53
2018-11-07T20:49:06.608Z,64.84
2018-11-07T20:51:34.604Z,64.76
2018-11-07T20:54:03.040Z,65.97
2018-11-07T20:56:31.236Z,66.21
2018-11-07T20:58:59.353Z,66.13
2018-11-07T21:01:27.420Z,66.56
2018-11-07T21:03:55.494Z,67.09
2018-11-07T21:06:23.555Z,66.70
2018-11-07T21:08:51.621Z,67.32
2018-11-07T21:11:19.684Z,68.23
2018-11-07T21:13:47.758Z,67.86
2018-11-07T21:16:15.816Z,68.47
2018-11-07T21:18:43.893Z,68.12
2018-11-07T21:21:11.970Z,68.27
2018-11-07T21:23:40.064Z,68.90
2018-11-07T21:26:08.120Z,69.22
2018-11-07T21:28:36.491Z,69.02
2018-11-07T21:31:04.611Z,68.97
2018-11-07T21:33:32.719Z,69.30
2018-11-07T21:36:00.803Z,68.92
2018-11-07T21:38:28.870Z,68.90
2018-11-07T21:40:56.921Z,69.08
2018-11-07T21:43:25.513Z,69.57
2018-11-07T21:45:53.588Z,68.99
2018-11-07T21:48:21.688Z,69.20
2018-11-07T21:50:49.767Z,68.88
2018-11-07T21:53:17.848Z,68.91
2018-11-07T21:55:45.916Z,68.60
2018-11-07T21:58:13.993Z,68.68
2018-11-07T22:00:42.084Z,69.10
2018-11-07T22:03:10.171Z,68.89
2018-11-07T22:05:38.273Z,68.52
2018-11-07T22:08:06.345Z,68.77
2018-11-07T22:10:34.426Z,68.89
2018-11-07T22:13:02.536Z,69.15
2018-11-07T22:15:30.580Z,68.86
2018-11-07T22:17:58.664Z,68.81
2018-11-07T22:20:26.736Z,68.90
2018-11-07T22:22:54.844Z,68.34
2018-11-07T22:25:22.931Z,68.47
2018-11-07T22:27:51.000Z,68.77
2018-11-07T22:30:19.093Z,68.68
2018-11-07T22:32:47.164Z,68.78
2018-11-07T22:35:16.799Z,68.43
2018-11-07T22:37:45.441Z,68.63
2018-11-07T22:40:14.765Z,68.43
2018-11-07T22:42:43.021Z,68.86
2018-11-07T22:45:11.935Z,68.14
2018-11-07T22:47:40.383Z,68.36
2018-11-07T22:50:10.211Z,68.01
2018-11-07T22:52:38.304Z,68.44
2018-11-07T22:55:07.086Z,69.12
2018-11-07T22:57:35.185Z,68.34
2018-11-07T23:00:03.249Z,68.70
2018-11-07T23:02:31.896Z,68.64
2018-11-07T23:05:00.027Z,68.30
2018-11-07T23:07:28.105Z,68.28
2018-11-07T23:09:57.193Z,68.37
2018-11-07T23:12:26.164Z,68.88
2018-11-07T23:14:54.236Z,68.51
2018-11-07T23:17:22.300Z,69.09
2018-11-07T23:19:50.417Z,69.01
2018-11-07T23:22:18.573Z,69.06
2018-11-07T23:24:46.664Z,68.48
2018-11-07T23:27:14.724Z,68.27
2018-11-07T23:29:42.785Z,68.71
2018-11-07T23:32:10.856Z,68.26
2018-11-07T23:34:38.924Z,68.39
2018-11-07T23:37:07.060Z,68.30
2018-11-07T23:39:35.119Z,68.68
2018-11-07T23:42:03.212Z,68.49
2018-11-07T23:44:31.265Z,68.61
2018-11-07T23:46:59.368Z,69.07
2018-11-07T23:49:27.467Z,68.65
2018-11-07T23:51:55.537Z,69.14
2018-11-07T23:54:23.604Z,69.58
2018-11-07T23:56:52.200Z,68.90
2018-11-07T23:59:20.462Z,69.38
